<?xml version='1.0' encoding='UTF-8'?>
<gpx xmlns="http://www.topografix.com/GPX/1/1" creator="www.balnam.be" version="1.1" xmlns:xsi="http://www.w3.org/2001/XMLSchema-instance" xsi:schemaLocation="http://www.topografix.com/GPX/1/1 http://www.topografix.com/GPX/1/1/gpx.xsd">
<trk>
<name>ncrcri13</name>
<cmt>v</cmt>
<desc>Cerfontaine Sentier n°i13 </desc>
<link href="https://chemins.be/cerfontaine/sentier/i13"/><trkseg>
<trkpt lat="50.172591" lon="4.402297"><time>2026-05-02T17:22:35Z</time></trkpt>
<trkpt lat="50.171549" lon="4.400085"><time>2026-05-02T17:32:35Z</time></trkpt>
<trkpt lat="50.170507" lon="4.397774"><time>2026-05-02T17:42:35Z</time></trkpt>
<trkpt lat="50.170135" lon="4.397203"><time>2026-05-02T17:52:35Z</time></trkpt>
<trkpt lat="50.170200" lon="4.396869"><time>2026-05-02T18:02:35Z</time></trkpt>
<trkpt lat="50.169644" lon="4.395310"><time>2026-05-02T18:12:35Z</time></trkpt>
<trkpt lat="50.169213" lon="4.393644"><time>2026-05-02T18:22:35Z</time></trkpt>
<trkpt lat="50.168854" lon="4.391866"><time>2026-05-02T18:32:35Z</time></trkpt>
<trkpt lat="50.168611" lon="4.391964"><time>2026-05-02T18:42:35Z</time></trkpt>
<trkpt lat="50.169322" lon="4.389557"><time>2026-05-02T18:52:35Z</time></trkpt>
<trkpt lat="50.168980" lon="4.388381"><time>2026-05-02T19:02:35Z</time></trkpt>
<trkpt lat="50.168486" lon="4.385805"><time>2026-05-02T19:12:35Z</time></trkpt>
<trkpt lat="50.168729" lon="4.385357"><time>2026-05-02T19:22:35Z</time></trkpt>
<trkpt lat="50.169376" lon="4.385498"><time>2026-05-02T19:32:35Z</time></trkpt>
<trkpt lat="50.169610" lon="4.385330"><time>2026-05-02T19:42:35Z</time></trkpt>
<trkpt lat="50.169556" lon="4.384840"><time>2026-05-02T19:52:35Z</time></trkpt>
<trkpt lat="50.169080" lon="4.384462"><time>2026-05-02T20:02:35Z</time></trkpt>
<trkpt lat="50.168774" lon="4.384070"><time>2026-05-02T20:12:35Z</time></trkpt>
<trkpt lat="50.168585" lon="4.382894"><time>2026-05-02T20:22:35Z</time></trkpt>
<trkpt lat="50.168586" lon="4.382054"><time>2026-05-02T20:32:35Z</time></trkpt>
<trkpt lat="50.168954" lon="4.381746"><time>2026-05-02T20:42:35Z</time></trkpt>
<trkpt lat="50.169197" lon="4.381648"><time>2026-05-02T20:52:35Z</time></trkpt>
<trkpt lat="50.169215" lon="4.381200"><time>2026-05-02T21:02:35Z</time></trkpt>
<trkpt lat="50.169377" lon="4.380850"><time>2026-05-02T21:12:35Z</time></trkpt>
<trkpt lat="50.169422" lon="4.380598"><time>2026-05-02T21:22:35Z</time></trkpt>
<trkpt lat="50.169593" lon="4.380556"><time>2026-05-02T21:32:35Z</time></trkpt>
<trkpt lat="50.169593" lon="4.380220"><time>2026-05-02T21:42:35Z</time></trkpt>
</trkseg>
</trk>
</gpx>